Other Surface Observations
Issued by NWS Missoula, MT

Home | Current Version | Previous Version | Text Only | Print | Product List | Glossary On
Versions: 1 2 3 4 5 6 7 8 9 10 11 12 13 14 15 16 17 18 19 20 21 22 23 24 25 26 27 28 29 30 31 32 33 34 35 36 37 38 39 40 41 42 43 44 45 46 47 48 49 50
000
SXUS55 KMSO 040503
OSOMSO
MONTANA AWOS SUMMARY
NATIONAL WEATHER SERVICE MISSOULA MT
1103 PM MDT FRI JUL 3 2015

Montana AWOS Reports

LAUREL      |K6S8 040455Z AUTO 00000KT 25SM 23/10 A2988 RMK AO1 T02330100
TWIN BRIDGES|K7S1 040455Z AUTO 00000KT 40SM 22/07 A2997 RMK AO1 T02170072
ROUNDUP     |KRPX 040455Z AUTO 00000KT 25SM 25/09 A2981 RMK AO1 T02500089
SCOBEY      |K9S2 040455Z AUTO 00000KT 10SM 20/14 A2983 RMK AO1 T02000144
PLAINS      |KS34 040455Z AUTO 00000KT 25SM 24/07 A2985 RMK AO1 T02440072




USA.gov is the U.S. government's official web portal to all federal, state and local government web resources and services.